Main page
METAR-TAF:

METAR-TAF

Airports :

Christchurch International Airport

Christchurch, New Zealand

latitude: 43-29S, longitude: 172-33E, elevation: 38 m

Current weather observation

The report was made 14 minutes ago, at 14:00 UTC
Wind 7 kt from the East
Temperature 13°C
Humidity 100%
Pressure 1021 hPa
Visibility 10 km or more

METAR: NZCH 051400Z AUTO 10007KT 9999 BKN004/// 13/13 Q1021 BECMG FEW004 TEMPO BKN004

Time: 02:14 (14:14 UTC)

Forecast

The report was made 3 hours and 12 minutes ago, at 11:02 UTC
Forecast valid from 05 at 12 UTC to 06 at 12 UTC
Wind 8 kt from the East
Visibility 10 km or more
Few clouds at a height of 1200 ft
Becoming
from 05 at 22 UTC to 06 at 00 UTC
Wind 18 kt from the East/Northeast
From 06 at 1000 UTC
Wind 8 kt from the East/Northeast
Visibility 10 km or more
Few clouds at a height of 7000 ft

TAF: NZCH 051102Z 0512/0612 08008KT 9999 FEW012 BECMG 0522/0600 06018KT FM061000 06008KT 9999 FEW070

Weather observations and forecasts of more than 4000 airports (METAR and TAF reports).

The available stations are represented by yellow and red dots on the map.

Hover mouse over dot to see the name of the station.

Then click to see weather observations and forecasts.

To change the map : click on the green buttons with a black cross to zoom in, on the green button with a dash to zoom out, or on the green arrows for adjacent maps.


METAR-TAF: